createdAt,value
2019-04-16T00:01:02.627Z,72.42
2019-04-16T00:03:34.396Z,72.30
2019-04-16T00:06:16.643Z,72.24
2019-04-16T00:09:02.035Z,72.05
2019-04-16T00:11:57.411Z,72.13
2019-04-16T00:14:34.688Z,73.96
2019-04-16T00:17:07.010Z,74.07
2019-04-16T00:19:38.789Z,73.56
2019-04-16T00:22:21.029Z,72.64
2019-04-16T00:24:55.044Z,72.66
2019-04-16T00:27:28.724Z,72.44
2019-04-16T00:30:04.899Z,72.65
2019-04-16T00:32:38.038Z,72.32
2019-04-16T00:35:15.397Z,72.53
2019-04-16T00:37:44.475Z,72.63
2019-04-16T00:40:16.229Z,72.99
2019-04-16T00:42:47.973Z,73.70
2019-04-16T00:45:19.749Z,73.98
2019-04-16T00:47:52.158Z,74.20
2019-04-16T00:50:24.124Z,74.43
2019-04-16T00:52:55.956Z,74.43
2019-04-16T00:55:28.004Z,74.65
2019-04-16T00:57:59.800Z,74.71
2019-04-16T01:00:32.668Z,74.75
2019-04-16T01:03:05.248Z,74.85
2019-04-16T01:05:36.983Z,74.96
2019-04-16T01:08:08.725Z,75.01
2019-04-16T01:10:40.486Z,74.95
2019-04-16T01:13:12.315Z,74.94
2019-04-16T01:15:44.166Z,74.97
2019-04-16T01:18:15.925Z,74.95
2019-04-16T01:20:47.942Z,75.01
2019-04-16T01:23:19.748Z,74.92
2019-04-16T01:25:56.184Z,74.68
2019-04-16T01:28:31.995Z,74.28
2019-04-16T01:31:14.780Z,74.24
2019-04-16T01:34:23.630Z,74.07
2019-04-16T01:37:25.807Z,73.31
2019-04-16T01:39:58.138Z,73.09
2019-04-16T01:42:29.903Z,73.22
2019-04-16T01:45:02.876Z,73.37
2019-04-16T01:47:37.106Z,73.52
2019-04-16T01:50:12.923Z,73.78
2019-04-16T01:52:42.243Z,73.94
2019-04-16T01:55:14.094Z,73.99
2019-04-16T01:57:48.629Z,74.32
2019-04-16T02:00:22.198Z,74.65
2019-04-16T02:02:54.001Z,74.66
2019-04-16T02:05:25.720Z,75.02
2019-04-16T02:07:59.245Z,75.24
2019-04-16T02:10:31.155Z,75.20
2019-04-16T02:13:04.302Z,75.23
2019-04-16T02:15:36.069Z,75.13
2019-04-16T02:18:08.221Z,75.03
2019-04-16T02:20:40.259Z,74.52
2019-04-16T02:23:13.553Z,73.73
2019-04-16T02:25:45.481Z,73.77
2019-04-16T02:28:17.324Z,73.93
2019-04-16T02:30:50.372Z,73.84
2019-04-16T02:33:22.165Z,73.98
2019-04-16T02:35:54.102Z,73.96
2019-04-16T02:38:28.135Z,73.85
2019-04-16T02:40:59.899Z,73.50
2019-04-16T02:43:39.697Z,73.48
2019-04-16T02:46:07.459Z,73.27
2019-04-16T02:48:41.980Z,73.08
2019-04-16T02:51:22.088Z,73.45
2019-04-16T02:54:13.191Z,73.60
2019-04-16T02:57:12.958Z,73.59
2019-04-16T02:59:47.383Z,73.19
2019-04-16T03:02:40.075Z,73.29
2019-04-16T03:05:37.997Z,73.17
2019-04-16T03:08:10.068Z,73.57
2019-04-16T03:10:44.613Z,74.03
2019-04-16T03:13:15.673Z,73.98
2019-04-16T03:15:56.353Z,74.00
2019-04-16T03:18:36.778Z,74.14
2019-04-16T03:21:08.534Z,74.54
2019-04-16T03:23:40.531Z,74.76
2019-04-16T03:26:16.365Z,74.71
2019-04-16T03:28:45.821Z,74.74
2019-04-16T03:31:22.139Z,74.87
2019-04-16T03:33:51.454Z,74.93
2019-04-16T03:36:23.204Z,74.92
2019-04-16T03:38:55.040Z,74.94
2019-04-16T03:41:26.810Z,74.57
2019-04-16T03:44:03.630Z,74.17
2019-04-16T03:46:33.281Z,74.08
2019-04-16T03:49:05.267Z,73.41
2019-04-16T03:51:38.155Z,73.39
2019-04-16T03:54:09.951Z,73.24
2019-04-16T03:56:42.134Z,73.13
2019-04-16T03:59:13.936Z,72.81
2019-04-16T04:01:46.877Z,73.26
2019-04-16T04:04:18.876Z,73.18
2019-04-16T04:06:50.967Z,73.30
2019-04-16T04:09:23.012Z,73.96
2019-04-16T04:11:54.815Z,73.47
2019-04-16T04:14:26.671Z,73.44
2019-04-16T04:17:05.413Z,73.74
2019-04-16T04:19:33.988Z,73.78
2019-04-16T04:22:05.803Z,73.81
2019-04-16T04:24:37.544Z,73.80
2019-04-16T04:27:12.840Z,73.73
2019-04-16T04:29:46.137Z,73.82
2019-04-16T04:32:18.004Z,73.98
2019-04-16T04:34:51.665Z,73.93
2019-04-16T04:37:23.516Z,73.99
2019-04-16T04:39:55.301Z,73.83
2019-04-16T04:42:28.360Z,73.71
2019-04-16T04:45:08.421Z,73.64
2019-04-16T04:47:36.846Z,73.81
2019-04-16T04:50:08.687Z,73.56
2019-04-16T04:52:40.489Z,73.71
2019-04-16T04:55:12.266Z,73.35
2019-04-16T04:57:44.131Z,73.78
2019-04-16T05:00:15.867Z,73.67
2019-04-16T05:02:47.626Z,73.21
2019-04-16T05:05:25.742Z,73.42
2019-04-16T05:08:00.013Z,73.55
2019-04-16T05:10:31.527Z,73.73
2019-04-16T05:13:04.109Z,73.56
2019-04-16T05:15:35.922Z,73.43
2019-04-16T05:18:09.759Z,73.72
2019-04-16T05:20:41.393Z,73.81
2019-04-16T05:23:14.138Z,73.66
2019-04-16T05:25:47.506Z,73.50
2019-04-16T05:28:19.277Z,73.77
2019-04-16T05:30:52.182Z,73.72
2019-04-16T05:33:24.992Z,73.55
2019-04-16T05:35:59.347Z,73.48
2019-04-16T05:38:30.310Z,73.56
2019-04-16T05:41:13.219Z,73.67
2019-04-16T05:43:38.525Z,73.73
2019-04-16T05:46:10.357Z,73.62
2019-04-16T05:48:42.167Z,73.37
2019-04-16T05:51:15.831Z,73.39
2019-04-16T05:53:51.709Z,72.96
2019-04-16T05:56:31.491Z,72.61
2019-04-16T05:59:04.588Z,72.61
2019-04-16T06:01:59.230Z,73.23
2019-04-16T06:04:30.971Z,73.17
2019-04-16T06:07:07.449Z,73.49
2019-04-16T06:09:38.264Z,73.14
2019-04-16T06:12:10.245Z,73.07
2019-04-16T06:14:51.468Z,73.18
2019-04-16T06:17:51.188Z,73.16
2019-04-16T06:20:53.029Z,73.15
2019-04-16T06:23:32.667Z,72.75
2019-04-16T06:26:24.136Z,72.54
2019-04-16T06:29:03.686Z,72.29
2019-04-16T06:31:41.891Z,71.94
2019-04-16T06:34:41.508Z,71.59
2019-04-16T06:37:21.554Z,71.37
2019-04-16T06:40:12.279Z,70.98
2019-04-16T06:42:51.443Z,70.39
2019-04-16T06:45:45.046Z,69.67
2019-04-16T06:48:25.483Z,67.82
2019-04-16T06:51:25.226Z,67.40
2019-04-16T06:54:32.843Z,67.81
2019-04-16T06:57:22.906Z,68.70
2019-04-16T07:00:13.563Z,68.52
2019-04-16T07:03:03.128Z,68.10
2019-04-16T07:05:42.078Z,67.56
2019-04-16T07:08:36.945Z,67.37
2019-04-16T07:11:00.438Z,67.46
2019-04-16T07:13:32.851Z,66.89
2019-04-16T07:16:05.323Z,66.41
2019-04-16T07:18:39.686Z,66.60
2019-04-16T07:21:11.489Z,66.21
2019-04-16T07:23:46.430Z,62.65
2019-04-16T07:26:17.313Z,59.87
2019-04-16T07:29:07.929Z,58.60
2019-04-16T07:31:48.109Z,57.44
2019-04-16T07:34:33.470Z,56.19
2019-04-16T07:37:24.127Z,54.26
2019-04-16T07:40:14.925Z,54.96
2019-04-16T07:42:59.027Z,53.85
2019-04-16T07:45:39.047Z,52.22
2019-04-16T07:48:28.342Z,50.43
2019-04-16T07:51:17.869Z,50.94
2019-04-16T07:54:11.639Z,52.49
2019-04-16T07:56:46.339Z,49.47
2019-04-16T07:59:18.135Z,48.92
2019-04-16T08:01:49.948Z,47.11
2019-04-16T08:04:28.993Z,46.49
2019-04-16T08:07:00.758Z,46.15
2019-04-16T08:09:33.896Z,45.43
2019-04-16T08:12:10.833Z,44.81
2019-04-16T08:14:39.165Z,47.15
2019-04-16T08:17:10.978Z,46.29
2019-04-16T08:19:44.812Z,47.08
2019-04-16T08:22:16.795Z,45.54
2019-04-16T08:24:57.211Z,45.35
2019-04-16T08:27:27.035Z,44.11
2019-04-16T08:30:02.123Z,43.52
2019-04-16T08:32:34.364Z,42.57
2019-04-16T08:35:08.450Z,41.06
2019-04-16T08:37:48.928Z,40.57
2019-04-16T08:40:15.481Z,42.82
2019-04-16T08:42:47.682Z,41.36
2019-04-16T08:45:20.794Z,40.54
2019-04-16T08:47:52.909Z,40.48
2019-04-16T08:50:26.269Z,40.04
2019-04-16T08:52:58.571Z,40.38
2019-04-16T08:55:31.845Z,40.16
2019-04-16T08:58:06.312Z,41.59
2019-04-16T09:00:39.177Z,40.44
2019-04-16T09:03:11.428Z,38.95
2019-04-16T09:05:43.686Z,38.34
2019-04-16T09:08:37.873Z,37.71
2019-04-16T09:11:22.338Z,38.12
2019-04-16T09:13:48.521Z,37.52
2019-04-16T09:16:21.341Z,37.52
2019-04-16T09:19:12.741Z,37.76
2019-04-16T09:21:44.927Z,37.79
2019-04-16T09:24:40.186Z,37.01
2019-04-16T09:27:28.597Z,37.26
2019-04-16T09:30:35.085Z,37.58
2019-04-16T09:33:30.438Z,39.32
2019-04-16T09:36:09.737Z,37.50
2019-04-16T09:38:55.110Z,36.67
2019-04-16T09:41:55.501Z,36.57
2019-04-16T09:44:32.467Z,36.29
2019-04-16T09:47:05.398Z,41.53
2019-04-16T09:49:38.944Z,38.32
2019-04-16T09:52:11.731Z,36.65
2019-04-16T09:54:45.181Z,36.72
2019-04-16T09:57:17.824Z,36.38
2019-04-16T09:59:54.149Z,36.23
2019-04-16T10:02:31.717Z,35.75
2019-04-16T10:05:04.470Z,35.23
2019-04-16T10:07:39.746Z,36.43
2019-04-16T10:10:10.472Z,37.68
2019-04-16T10:12:43.376Z,35.62
2019-04-16T10:15:16.650Z,34.17
2019-04-16T10:17:51.286Z,34.18
2019-04-16T10:20:24.991Z,36.63
2019-04-16T10:22:59.256Z,34.08
2019-04-16T10:25:33.637Z,34.50
2019-04-16T10:28:20.382Z,32.83
2019-04-16T10:30:54.763Z,36.00
2019-04-16T10:33:28.143Z,34.75
2019-04-16T10:36:04.655Z,35.75
2019-04-16T10:39:02.338Z,36.02
2019-04-16T10:41:49.598Z,33.34
2019-04-16T10:44:39.550Z,31.56
2019-04-16T10:47:48.987Z,33.16
2019-04-16T10:50:33.903Z,35.38
2019-04-16T10:53:43.841Z,35.89
2019-04-16T10:56:40.521Z,33.21
2019-04-16T10:59:30.406Z,34.10
2019-04-16T11:02:41.039Z,32.54
2019-04-16T11:05:36.862Z,34.26
2019-04-16T11:08:13.186Z,32.35
2019-04-16T11:10:45.807Z,35.25
2019-04-16T11:13:28.701Z,36.24
2019-04-16T11:16:05.987Z,34.49
2019-04-16T11:18:41.107Z,36.47
2019-04-16T11:21:13.927Z,35.35
2019-04-16T11:23:47.481Z,33.58
2019-04-16T11:26:20.385Z,33.47
2019-04-16T11:28:52.425Z,33.54
2019-04-16T11:31:27.072Z,35.37
2019-04-16T11:33:58.454Z,33.73
2019-04-16T11:36:31.641Z,34.34
2019-04-16T11:39:05.823Z,34.51
2019-04-16T11:41:37.902Z,34.29
2019-04-16T11:44:15.634Z,33.29
2019-04-16T11:46:43.487Z,31.78
2019-04-16T11:49:18.427Z,34.75
2019-04-16T11:51:50.397Z,33.99
2019-04-16T11:54:22.139Z,33.38
2019-04-16T11:56:59.455Z,34.21
2019-04-16T11:59:29.475Z,33.99
2019-04-16T12:02:10.649Z,34.77
2019-04-16T12:05:00.842Z,33.12
2019-04-16T12:07:40.894Z,35.07
2019-04-16T12:10:30.514Z,34.43
2019-04-16T12:13:22.039Z,34.08
2019-04-16T12:16:13.628Z,36.57
2019-04-16T12:19:02.967Z,37.34
2019-04-16T12:21:49.587Z,34.84
2019-04-16T12:24:39.860Z,34.27
2019-04-16T12:27:39.374Z,35.81
2019-04-16T12:30:34.378Z,35.49
2019-04-16T12:33:25.002Z,37.53
2019-04-16T12:36:15.673Z,36.99
2019-04-16T12:38:59.027Z,35.12
2019-04-16T12:41:39.075Z,34.17
2019-04-16T12:44:25.348Z,34.75
2019-04-16T12:47:08.215Z,33.73
2019-04-16T12:49:44.727Z,35.58
2019-04-16T12:52:44.494Z,35.24
2019-04-16T12:55:38.497Z,35.53
2019-04-16T12:58:20.113Z,34.53
2019-04-16T13:01:23.271Z,34.37
2019-04-16T13:04:02.884Z,35.08
2019-04-16T13:06:53.418Z,36.58
2019-04-16T13:09:46.844Z,35.85
2019-04-16T13:12:40.361Z,34.80
2019-04-16T13:15:31.912Z,34.60
2019-04-16T13:18:16.987Z,34.65
2019-04-16T13:21:06.359Z,36.62
2019-04-16T13:24:03.135Z,35.27
2019-04-16T13:26:41.307Z,34.58
2019-04-16T13:29:18.299Z,32.81
2019-04-16T13:31:50.125Z,33.51
2019-04-16T13:34:22.396Z,33.13
2019-04-16T13:36:59.230Z,32.60
2019-04-16T13:40:05.425Z,35.46
2019-04-16T13:42:37.428Z,34.48
2019-04-16T13:45:28.343Z,34.50
2019-04-16T13:48:15.373Z,32.48
2019-04-16T13:50:43.019Z,32.16
2019-04-16T13:53:31.721Z,34.11
2019-04-16T13:56:25.339Z,34.41
2019-04-16T13:59:07.808Z,35.04
2019-04-16T14:01:46.151Z,32.48
2019-04-16T14:04:18.369Z,32.56
2019-04-16T14:06:52.278Z,31.20
2019-04-16T14:09:24.041Z,32.73
2019-04-16T14:11:55.811Z,33.43
2019-04-16T14:14:27.588Z,33.37
2019-04-16T14:17:09.073Z,33.42
2019-04-16T14:19:34.736Z,33.00
2019-04-16T14:22:07.834Z,33.71
2019-04-16T14:24:39.636Z,33.11
2019-04-16T14:27:13.965Z,31.07
2019-04-16T14:29:45.622Z,31.63
2019-04-16T14:32:18.659Z,31.61
2019-04-16T14:34:57.205Z,32.48
2019-04-16T14:37:28.975Z,30.97
2019-04-16T14:40:20.775Z,30.84
2019-04-16T14:42:57.463Z,31.04
2019-04-16T14:45:50.089Z,31.41
2019-04-16T14:48:09.636Z,32.02
2019-04-16T14:50:41.010Z,30.87
2019-04-16T14:53:16.166Z,32.21
2019-04-16T14:56:00.474Z,31.41
2019-04-16T14:58:58.736Z,31.38
2019-04-16T15:01:42.408Z,30.87
2019-04-16T15:04:43.153Z,31.99
2019-04-16T15:07:27.840Z,31.80
2019-04-16T15:10:17.345Z,30.98
2019-04-16T15:13:11.084Z,32.17
2019-04-16T15:16:10.721Z,31.72
2019-04-16T15:19:03.142Z,32.29
2019-04-16T15:22:09.759Z,32.03
2019-04-16T15:25:12.489Z,31.91
2019-04-16T15:27:49.861Z,32.01
2019-04-16T15:31:01.879Z,32.44
2019-04-16T15:33:39.017Z,31.70
2019-04-16T15:36:18.441Z,31.86
2019-04-16T15:39:02.952Z,30.57
2019-04-16T15:41:53.434Z,31.47
2019-04-16T15:44:52.610Z,32.05
2019-04-16T15:48:00.675Z,31.04
2019-04-16T15:50:49.984Z,31.42
2019-04-16T15:53:55.820Z,31.91
2019-04-16T15:56:46.390Z,32.44
2019-04-16T15:59:28.860Z,32.51
2019-04-16T16:02:31.644Z,32.20
2019-04-16T16:05:12.977Z,32.41
2019-04-16T16:08:02.729Z,33.35
2019-04-16T16:10:45.136Z,33.66
2019-04-16T16:13:14.680Z,33.30
2019-04-16T16:15:46.436Z,34.26
2019-04-16T16:18:18.236Z,33.16
2019-04-16T16:20:50.045Z,32.85
2019-04-16T16:23:22.422Z,34.22
2019-04-16T16:25:54.344Z,34.72
2019-04-16T16:28:26.149Z,32.76
2019-04-16T16:31:00.412Z,33.86
2019-04-16T16:33:33.835Z,34.83
2019-04-16T16:36:06.590Z,33.83
2019-04-16T16:38:38.727Z,33.85
2019-04-16T16:41:10.621Z,34.79
2019-04-16T16:43:44.750Z,35.91
2019-04-16T16:46:55.751Z,37.86
2019-04-16T16:49:14.958Z,39.30
2019-04-16T16:52:08.691Z,41.18
2019-04-16T16:54:40.892Z,42.23
2019-04-16T16:57:22.132Z,42.02
2019-04-16T17:00:09.898Z,41.88
2019-04-16T17:02:50.589Z,42.98
2019-04-16T17:05:31.345Z,42.81
2019-04-16T17:08:04.658Z,42.79
2019-04-16T17:10:36.412Z,43.71
2019-04-16T17:13:13.309Z,43.26
2019-04-16T17:15:41.671Z,44.05
2019-04-16T17:18:13.794Z,44.08
2019-04-16T17:20:45.537Z,42.70
2019-04-16T17:23:17.385Z,44.22
2019-04-16T17:25:52.290Z,43.69
2019-04-16T17:28:24.144Z,43.97
2019-04-16T17:30:56.317Z,44.46
2019-04-16T17:33:28.077Z,44.13
2019-04-16T17:35:59.896Z,45.07
2019-04-16T17:38:33.845Z,44.51
2019-04-16T17:41:09.644Z,44.69
2019-04-16T17:44:04.069Z,45.23
2019-04-16T17:47:07.045Z,45.22
2019-04-16T17:49:50.558Z,45.29
2019-04-16T17:52:47.304Z,45.43
2019-04-16T17:55:46.875Z,45.80
2019-04-16T17:58:27.388Z,47.12
2019-04-16T18:01:24.293Z,48.40
2019-04-16T18:04:13.826Z,48.95
2019-04-16T18:06:55.754Z,49.04
2019-04-16T18:09:36.359Z,49.10
2019-04-16T18:12:30.148Z,49.92
2019-04-16T18:15:09.673Z,49.79
2019-04-16T18:18:06.926Z,49.76
2019-04-16T18:21:15.885Z,49.86
2019-04-16T18:24:12.113Z,49.97
2019-04-16T18:27:05.738Z,50.00
2019-04-16T18:29:51.542Z,50.30
2019-04-16T18:32:45.242Z,49.83
2019-04-16T18:35:23.643Z,50.37
2019-04-16T18:38:08.147Z,50.47
2019-04-16T18:41:20.923Z,49.86
2019-04-16T18:44:11.779Z,50.17
2019-04-16T18:47:10.798Z,50.33
2019-04-16T18:49:43.438Z,50.85
2019-04-16T18:52:15.457Z,50.29
2019-04-16T18:54:49.333Z,50.33
2019-04-16T18:57:20.847Z,50.59
2019-04-16T18:59:52.718Z,50.58
2019-04-16T19:02:27.467Z,50.83
2019-04-16T19:04:59.563Z,51.53
2019-04-16T19:07:33.321Z,51.29
2019-04-16T19:10:06.048Z,51.42
2019-04-16T19:12:39.084Z,51.58
2019-04-16T19:15:10.951Z,51.85
2019-04-16T19:17:42.946Z,52.08
2019-04-16T19:20:17.801Z,52.24
2019-04-16T19:22:52.051Z,51.99
2019-04-16T19:25:23.978Z,52.41
2019-04-16T19:27:55.960Z,52.76
2019-04-16T19:30:30.996Z,52.91
2019-04-16T19:33:04.180Z,53.07
2019-04-16T19:35:38.309Z,53.01
2019-04-16T19:38:10.604Z,53.33
2019-04-16T19:40:42.588Z,53.74
2019-04-16T19:43:14.438Z,53.24
2019-04-16T19:45:46.480Z,53.52
2019-04-16T19:48:34.548Z,54.55
2019-04-16T19:50:56.823Z,54.07
2019-04-16T19:53:28.728Z,53.66
2019-04-16T19:56:00.723Z,54.03
2019-04-16T19:58:33.570Z,54.68
2019-04-16T20:01:11.731Z,54.63
2019-04-16T20:03:43.621Z,54.59
2019-04-16T20:06:19.294Z,55.47
2019-04-16T20:08:51.756Z,56.30
2019-04-16T20:11:23.597Z,56.16
2019-04-16T20:13:55.536Z,55.60
2019-04-16T20:16:28.293Z,56.07
2019-04-16T20:19:00.324Z,56.05
2019-04-16T20:21:37.491Z,56.10
2019-04-16T20:24:07.725Z,56.21
2019-04-16T20:26:40.568Z,56.37
2019-04-16T20:29:14.471Z,56.83
2019-04-16T20:31:46.334Z,56.70
2019-04-16T20:34:18.499Z,56.58
2019-04-16T20:36:52.226Z,56.55
2019-04-16T20:39:25.392Z,56.74
2019-04-16T20:41:59.879Z,56.98
2019-04-16T20:44:33.825Z,57.71
2019-04-16T20:47:08.359Z,57.88
2019-04-16T20:49:40.631Z,57.41
2019-04-16T20:52:12.920Z,57.20
2019-04-16T20:54:50.487Z,57.24
2019-04-16T20:57:25.340Z,57.59
2019-04-16T20:59:55.990Z,57.85
2019-04-16T21:02:29.516Z,57.80
2019-04-16T21:05:04.378Z,58.23
2019-04-16T21:07:36.189Z,59.20
2019-04-16T21:10:08.872Z,59.24
2019-04-16T21:12:45.079Z,59.56
2019-04-16T21:15:14.871Z,60.63
2019-04-16T21:17:46.678Z,60.64
2019-04-16T21:20:20.274Z,60.15
2019-04-16T21:22:53.017Z,60.07
2019-04-16T21:25:26.502Z,60.07
2019-04-16T21:28:24.451Z,60.39
2019-04-16T21:31:00.791Z,60.67
2019-04-16T21:33:49.187Z,60.34
2019-04-16T21:36:33.923Z,60.28
2019-04-16T21:39:09.321Z,60.15
2019-04-16T21:41:42.701Z,60.24
2019-04-16T21:44:14.554Z,60.47
2019-04-16T21:46:46.350Z,61.92
2019-04-16T21:49:18.190Z,62.51
2019-04-16T21:52:08.527Z,61.61
2019-04-16T21:54:40.375Z,62.16
2019-04-16T21:57:13.620Z,62.55
2019-04-16T21:59:45.738Z,62.43
2019-04-16T22:02:37.845Z,62.90
2019-04-16T22:05:10.989Z,63.05
2019-04-16T22:07:42.944Z,62.84
2019-04-16T22:10:14.904Z,62.28
2019-04-16T22:12:47.611Z,62.16
2019-04-16T22:15:25.181Z,62.17
2019-04-16T22:17:53.969Z,62.75
2019-04-16T22:20:25.815Z,64.73
2019-04-16T22:22:57.625Z,65.06
2019-04-16T22:25:29.447Z,64.53
2019-04-16T22:28:03.551Z,64.28
2019-04-16T22:30:35.303Z,64.40
2019-04-16T22:33:08.940Z,64.11
2019-04-16T22:35:41.026Z,64.22
2019-04-16T22:38:14.410Z,64.65
2019-04-16T22:41:05.108Z,64.18
2019-04-16T22:43:53.758Z,64.88
2019-04-16T22:46:44.380Z,64.40
2019-04-16T22:49:18.569Z,64.65
2019-04-16T22:51:50.189Z,64.62
2019-04-16T22:54:21.948Z,64.78
2019-04-16T22:57:02.663Z,65.03
2019-04-16T22:59:39.113Z,65.11
2019-04-16T23:02:18.378Z,65.24
2019-04-16T23:04:50.113Z,65.51
2019-04-16T23:07:21.855Z,65.21
2019-04-16T23:09:53.717Z,65.64
2019-04-16T23:12:28.101Z,65.86
2019-04-16T23:14:59.056Z,65.98
2019-04-16T23:17:46.160Z,65.83
2019-04-16T23:20:28.710Z,65.90
2019-04-16T23:22:50.420Z,65.77
2019-04-16T23:25:44.511Z,65.61
2019-04-16T23:28:16.473Z,65.18
2019-04-16T23:30:51.299Z,65.39
2019-04-16T23:33:23.752Z,65.32
2019-04-16T23:35:55.478Z,64.93
2019-04-16T23:38:31.192Z,65.00
2019-04-16T23:41:03.234Z,65.04
2019-04-16T23:44:10.599Z,64.94
2019-04-16T23:47:16.205Z,65.08
2019-04-16T23:49:54.478Z,65.19
2019-04-16T23:52:39.035Z,65.44
2019-04-16T23:55:21.395Z,65.39
2019-04-16T23:58:06.670Z,65.31
